Terminal Aerodrome Forecast
Issued by NWS

Home | Current Version | Previous Version | Text Only | Print | Product List | Glossary On
Versions: 1 2 3 4 5 6 7 8 9 10 11 12 13 14
000
FTUS45 KRIW 161737
TAFCPR
TAF
KCPR 161737Z 1618/1718 22018KT P6SM SCT250
     FM161900 23023G33KT P6SM SCT250
     FM162300 26013KT P6SM SCT250
     FM170100 24009KT P6SM SCT250
     FM171400 22018G28KT P6SM SKC=

USA.gov is the U.S. government's official web portal to all federal, state and local government web resources and services.